createdAt,value
2023-08-28T00:02:14.197Z,24.51
2023-08-28T00:05:37.038Z,23.87
2023-08-28T00:09:01.695Z,24.11
2023-08-28T00:12:24.395Z,24.10
2023-08-28T00:15:46.943Z,24.06
2023-08-28T00:19:10.803Z,24.33
2023-08-28T00:22:33.153Z,24.22
2023-08-28T00:25:55.580Z,23.96
2023-08-28T00:29:18.012Z,24.03
2023-08-28T00:32:40.762Z,24.15
2023-08-28T00:36:06.998Z,23.98
2023-08-28T00:39:29.956Z,23.89
2023-08-28T00:42:52.657Z,23.73
2023-08-28T00:46:15.169Z,23.71
2023-08-28T00:49:37.758Z,24.17
2023-08-28T00:53:02.652Z,23.74
2023-08-28T00:56:25.982Z,23.90
2023-08-28T00:59:48.518Z,23.95
2023-08-28T01:03:11.109Z,23.76
2023-08-28T01:06:37.649Z,23.85
2023-08-28T01:10:06.606Z,23.90
2023-08-28T01:13:32.958Z,23.66
2023-08-28T01:16:56.363Z,23.76
2023-08-28T01:20:19.094Z,23.59
2023-08-28T01:23:46.908Z,23.62
2023-08-28T01:27:11.117Z,23.43
2023-08-28T01:30:33.408Z,23.10
2023-08-28T01:33:56.461Z,23.08
2023-08-28T01:37:19.044Z,23.09
2023-08-28T01:40:42.864Z,23.07
2023-08-28T01:44:07.613Z,22.76
2023-08-28T01:47:30.450Z,22.65
2023-08-28T01:50:52.885Z,22.92
2023-08-28T01:54:15.386Z,22.90
2023-08-28T01:57:37.814Z,23.03
2023-08-28T02:01:01.814Z,22.87
2023-08-28T02:04:24.319Z,22.69
2023-08-28T02:07:46.751Z,23.21
2023-08-28T02:11:09.758Z,23.11
2023-08-28T02:14:32.420Z,22.64
2023-08-28T02:17:57.041Z,22.66
2023-08-28T02:21:19.571Z,22.66
2023-08-28T02:24:44.764Z,22.65
2023-08-28T02:28:07.770Z,22.79
2023-08-28T02:31:30.373Z,22.58
2023-08-28T02:34:54.355Z,22.37
2023-08-28T02:38:17.193Z,22.64
2023-08-28T02:41:40.967Z,22.54
2023-08-28T02:45:05.482Z,22.97
2023-08-28T02:48:27.717Z,22.62
2023-08-28T02:51:51.528Z,22.90
2023-08-28T02:55:13.974Z,22.87
2023-08-28T02:58:36.442Z,22.66
2023-08-28T03:01:58.901Z,22.63
2023-08-28T03:05:21.180Z,22.66
2023-08-28T03:08:45.190Z,22.43
2023-08-28T03:12:08.089Z,22.41
2023-08-28T03:15:30.841Z,22.40
2023-08-28T03:18:53.774Z,22.28
2023-08-28T03:22:16.266Z,22.53
2023-08-28T03:25:40.139Z,22.25
2023-08-28T03:29:02.583Z,22.64
2023-08-28T03:32:27.368Z,22.77
2023-08-28T03:35:50.267Z,22.61
2023-08-28T03:39:12.861Z,22.65
2023-08-28T03:42:36.863Z,22.65
2023-08-28T03:45:59.596Z,22.33
2023-08-28T03:49:22.107Z,22.26
2023-08-28T03:52:44.641Z,22.39
2023-08-28T03:56:07.103Z,22.10
2023-08-28T03:59:30.963Z,22.09
2023-08-28T04:02:53.825Z,22.05
2023-08-28T04:06:16.366Z,21.99
2023-08-28T04:09:38.811Z,21.84
2023-08-28T04:13:01.896Z,21.75
2023-08-28T04:16:26.536Z,21.73
2023-08-28T04:19:52.502Z,21.72
2023-08-28T04:23:15.281Z,21.70
2023-08-28T04:26:38.074Z,21.89
2023-08-28T04:30:00.510Z,21.83
2023-08-28T04:33:24.987Z,21.74
2023-08-28T04:36:49.930Z,21.85
2023-08-28T04:40:13.401Z,21.74
2023-08-28T04:43:35.559Z,21.78
2023-08-28T04:46:59.872Z,21.80
2023-08-28T04:50:23.665Z,21.76
2023-08-28T04:53:46.217Z,21.94
2023-08-28T04:57:08.741Z,22.13
2023-08-28T05:00:31.274Z,22.08
2023-08-28T05:03:53.730Z,22.28
2023-08-28T05:07:17.787Z,22.58
2023-08-28T05:10:39.925Z,22.33
2023-08-28T05:14:02.529Z,22.60
2023-08-28T05:17:25.143Z,22.69
2023-08-28T05:20:47.511Z,22.83
2023-08-28T05:24:11.566Z,22.80
2023-08-28T05:27:34.160Z,22.81
2023-08-28T05:30:58.758Z,22.95
2023-08-28T05:34:21.563Z,23.02
2023-08-28T05:37:44.072Z,23.34
2023-08-28T05:41:08.067Z,23.53
2023-08-28T05:44:30.416Z,23.76
2023-08-28T05:47:54.388Z,24.09
2023-08-28T05:51:16.855Z,24.30
2023-08-28T05:54:39.376Z,24.40
2023-08-28T05:58:03.829Z,24.64
2023-08-28T06:01:26.382Z,25.00
2023-08-28T06:04:51.656Z,25.20
2023-08-28T06:08:18.018Z,25.39
2023-08-28T06:11:42.676Z,25.68
2023-08-28T06:15:07.532Z,25.68
2023-08-28T06:18:30.114Z,26.07
2023-08-28T06:21:52.704Z,26.09
2023-08-28T06:25:15.363Z,26.52
2023-08-28T06:28:40.907Z,26.81
2023-08-28T06:32:05.111Z,26.89
2023-08-28T06:35:28.374Z,26.92
2023-08-28T06:38:53.415Z,26.95
2023-08-28T06:42:15.856Z,27.10
2023-08-28T06:45:38.659Z,26.97
2023-08-28T06:49:02.650Z,27.01
2023-08-28T06:52:25.249Z,26.93
2023-08-28T06:55:47.852Z,26.92
2023-08-28T06:59:10.596Z,27.12
2023-08-28T07:02:33.312Z,27.34
2023-08-28T07:05:58.062Z,27.59
2023-08-28T07:09:20.517Z,27.72
2023-08-28T07:12:43.189Z,28.25
2023-08-28T07:16:06.046Z,28.29
2023-08-28T07:19:28.803Z,28.34
2023-08-28T07:22:53.236Z,28.51
2023-08-28T07:26:15.848Z,28.83
2023-08-28T07:29:38.209Z,28.96
2023-08-28T07:33:00.739Z,29.36
2023-08-28T07:36:24.919Z,29.44
2023-08-28T07:39:48.727Z,29.48
2023-08-28T07:43:10.978Z,29.85
2023-08-28T07:46:36.461Z,29.70
2023-08-28T07:49:58.805Z,29.76
2023-08-28T07:53:21.803Z,30.12
2023-08-28T07:56:45.692Z,30.43
2023-08-28T08:00:11.387Z,30.27
2023-08-28T08:03:35.485Z,30.65
2023-08-28T08:06:57.943Z,30.87
2023-08-28T08:10:20.365Z,30.65
2023-08-28T08:13:44.357Z,30.50
2023-08-28T08:17:06.715Z,30.70
2023-08-28T08:20:29.356Z,30.43
2023-08-28T08:23:51.654Z,30.80
2023-08-28T08:27:14.084Z,30.80
2023-08-28T08:30:38.179Z,31.12
2023-08-28T08:34:00.921Z,31.19
2023-08-28T08:37:23.317Z,31.71
2023-08-28T08:40:45.872Z,31.84
2023-08-28T08:44:08.474Z,31.64
2023-08-28T08:47:32.622Z,31.73
2023-08-28T08:50:55.046Z,32.15
2023-08-28T08:54:20.225Z,31.92
2023-08-28T08:57:43.994Z,32.10
2023-08-28T09:01:06.762Z,32.46
2023-08-28T09:04:31.165Z,32.94
2023-08-28T09:07:53.864Z,32.71
2023-08-28T09:11:16.417Z,32.73
2023-08-28T09:14:41.243Z,32.95
2023-08-28T09:18:04.038Z,33.60
2023-08-28T09:21:28.839Z,34.59
2023-08-28T09:24:53.216Z,33.85
2023-08-28T09:28:15.864Z,33.50
2023-08-28T09:31:40.798Z,33.24
2023-08-28T09:35:06.082Z,33.52
2023-08-28T09:38:32.990Z,33.57
2023-08-28T09:41:55.542Z,34.01
2023-08-28T09:45:18.039Z,33.71
2023-08-28T09:48:43.112Z,33.74
2023-08-28T09:52:05.826Z,33.90
2023-08-28T09:55:31.057Z,33.69
2023-08-28T09:58:53.236Z,33.53
2023-08-28T10:02:21.539Z,34.52
2023-08-28T10:05:48.310Z,34.08
2023-08-28T10:09:16.648Z,34.94
2023-08-28T10:12:41.838Z,35.88
2023-08-28T10:16:06.722Z,35.19
2023-08-28T10:19:32.308Z,35.89
2023-08-28T10:22:55.107Z,36.02
2023-08-28T10:26:17.783Z,36.34
2023-08-28T10:29:41.786Z,35.79
2023-08-28T10:33:05.442Z,36.07
2023-08-28T10:39:54.188Z,35.85
2023-08-28T10:43:16.709Z,36.60
2023-08-28T10:46:40.731Z,36.25
2023-08-28T10:50:03.502Z,36.27
2023-08-28T10:53:26.513Z,36.52
2023-08-28T10:56:55.434Z,36.58
2023-08-28T11:00:19.465Z,36.54
2023-08-28T11:04:07.916Z,37.67
2023-08-28T11:07:49.210Z,38.92
2023-08-28T11:11:15.188Z,37.93
2023-08-28T11:14:53.086Z,38.17
2023-08-28T11:18:30.860Z,37.75
2023-08-28T11:21:54.800Z,37.73
2023-08-28T11:25:37.098Z,37.15
2023-08-28T11:29:00.123Z,38.73
2023-08-28T11:32:22.701Z,38.56
2023-08-28T11:35:45.245Z,38.22
2023-08-28T11:39:09.135Z,38.44
2023-08-28T11:42:31.815Z,39.60
2023-08-28T11:45:58.678Z,39.41
2023-08-28T11:49:23.884Z,38.76
2023-08-28T11:52:49.558Z,38.63
2023-08-28T11:56:14.897Z,39.13
2023-08-28T11:59:38.110Z,39.38
2023-08-28T12:03:02.933Z,39.15
2023-08-28T12:06:25.626Z,38.46
2023-08-28T12:09:48.420Z,39.11
2023-08-28T12:13:12.526Z,38.46
2023-08-28T12:16:35.068Z,38.36
2023-08-28T12:19:58.095Z,39.06
2023-08-28T12:23:20.662Z,38.98
2023-08-28T12:26:44.438Z,39.59
2023-08-28T12:30:09.574Z,39.86
2023-08-28T12:33:32.211Z,39.03
2023-08-28T12:36:54.623Z,39.59
2023-08-28T12:40:17.610Z,38.49
2023-08-28T12:43:39.829Z,38.93
2023-08-28T12:47:04.406Z,38.87
2023-08-28T12:50:26.959Z,39.87
2023-08-28T12:53:49.384Z,39.40
2023-08-28T12:57:11.988Z,39.43
2023-08-28T13:00:34.506Z,40.14
2023-08-28T13:03:58.644Z,40.46
2023-08-28T13:07:21.101Z,39.66
2023-08-28T13:10:43.596Z,40.61
2023-08-28T13:14:07.145Z,40.78
2023-08-28T13:17:29.755Z,40.19
2023-08-28T13:20:53.924Z,40.59
2023-08-28T13:24:17.389Z,40.73
2023-08-28T13:27:41.594Z,40.11
2023-08-28T13:31:05.086Z,40.02
2023-08-28T13:34:30.093Z,41.25
2023-08-28T13:37:54.101Z,40.81
2023-08-28T13:41:16.735Z,40.91
2023-08-28T13:44:39.263Z,40.97
2023-08-28T13:48:01.870Z,40.44
2023-08-28T13:51:24.427Z,39.84
2023-08-28T13:54:48.366Z,39.90
2023-08-28T13:58:11.000Z,39.91
2023-08-28T14:01:34.993Z,40.25
2023-08-28T14:04:57.782Z,40.74
2023-08-28T14:08:20.376Z,41.29
2023-08-28T14:11:46.656Z,40.85
2023-08-28T14:15:09.687Z,40.63
2023-08-28T14:18:32.833Z,40.56
2023-08-28T14:21:55.100Z,40.78
2023-08-28T14:25:17.679Z,41.03
2023-08-28T14:28:41.415Z,41.55
2023-08-28T14:32:04.038Z,40.66
2023-08-28T14:35:26.468Z,41.41
2023-08-28T14:38:49.461Z,41.37
2023-08-28T14:42:12.050Z,40.38
2023-08-28T14:45:36.440Z,40.98
2023-08-28T14:48:59.381Z,41.32
2023-08-28T14:52:22.248Z,40.71
2023-08-28T14:55:44.556Z,40.55
2023-08-28T14:59:07.326Z,40.92
2023-08-28T15:02:33.347Z,40.24
2023-08-28T15:05:57.111Z,40.20
2023-08-28T15:09:19.897Z,39.11
2023-08-28T15:12:42.756Z,38.06
2023-08-28T15:16:05.980Z,37.69
2023-08-28T15:19:30.394Z,37.99
2023-08-28T15:22:53.012Z,38.63
2023-08-28T15:26:17.097Z,39.16
2023-08-28T15:29:39.950Z,39.82
2023-08-28T15:33:03.551Z,39.24
2023-08-28T15:36:27.752Z,38.97
2023-08-28T15:39:51.126Z,39.43
2023-08-28T15:43:13.814Z,38.92
2023-08-28T15:46:36.614Z,38.22
2023-08-28T15:50:00.385Z,38.30
2023-08-28T15:53:26.030Z,37.95
2023-08-28T15:56:51.568Z,37.64
2023-08-28T16:00:16.194Z,37.94
2023-08-28T16:03:40.276Z,38.44
2023-08-28T16:07:03.904Z,37.64
2023-08-28T16:10:30.094Z,37.44
2023-08-28T16:13:53.739Z,36.94
2023-08-28T16:17:17.386Z,36.51
2023-08-28T16:20:44.430Z,36.63
2023-08-28T16:24:07.294Z,36.62
2023-08-28T16:27:34.000Z,36.38
2023-08-28T16:30:58.938Z,36.70
2023-08-28T16:34:25.103Z,36.70
2023-08-28T16:37:49.042Z,36.48
2023-08-28T16:41:12.638Z,36.22
2023-08-28T16:44:38.510Z,35.80
2023-08-28T16:48:02.248Z,35.26
2023-08-28T16:51:26.165Z,34.75
2023-08-28T16:54:49.546Z,34.40
2023-08-28T16:58:13.382Z,34.07
2023-08-28T17:01:38.827Z,33.76
2023-08-28T17:05:04.194Z,33.48
2023-08-28T17:08:27.615Z,33.23
2023-08-28T17:11:52.496Z,33.13
2023-08-28T17:15:16.678Z,32.62
2023-08-28T17:18:48.495Z,32.53
2023-08-28T17:22:13.462Z,32.47
2023-08-28T17:25:37.517Z,32.13
2023-08-28T17:29:00.857Z,31.99
2023-08-28T17:32:28.905Z,31.61
2023-08-28T17:35:54.609Z,31.52
2023-08-28T17:39:21.046Z,31.36
2023-08-28T17:42:45.219Z,31.24
2023-08-28T17:46:09.412Z,31.27
2023-08-28T17:49:33.438Z,31.09
2023-08-28T17:52:59.280Z,31.02
2023-08-28T17:56:23.523Z,31.10
2023-08-28T17:59:49.807Z,30.95
2023-08-28T18:03:24.097Z,31.08
2023-08-28T18:06:58.387Z,30.96
2023-08-28T18:10:25.684Z,30.83
2023-08-28T18:13:51.518Z,30.95
2023-08-28T18:17:15.363Z,30.81
2023-08-28T18:20:40.260Z,30.74
2023-08-28T18:24:04.958Z,30.84
2023-08-28T18:27:30.920Z,30.51
2023-08-28T18:30:56.422Z,30.22
2023-08-28T18:34:21.412Z,30.64
2023-08-28T18:37:45.986Z,30.47
2023-08-28T18:41:10.646Z,30.37
2023-08-28T18:44:37.432Z,30.43
2023-08-28T18:48:00.896Z,30.43
2023-08-28T18:51:26.974Z,30.31
2023-08-28T18:54:54.026Z,30.11
2023-08-28T18:58:18.302Z,30.37
2023-08-28T19:01:45.108Z,30.28
2023-08-28T19:05:11.982Z,30.12
2023-08-28T19:08:39.442Z,29.98
2023-08-28T19:12:05.091Z,30.10
2023-08-28T19:15:34.560Z,30.12
2023-08-28T19:19:02.414Z,30.13
2023-08-28T19:22:28.507Z,30.18
2023-08-28T19:25:53.827Z,30.09
2023-08-28T19:29:19.960Z,30.06
2023-08-28T19:32:44.999Z,29.95
2023-08-28T19:36:10.760Z,29.88
2023-08-28T19:39:34.963Z,29.81
2023-08-28T19:42:58.860Z,29.80
2023-08-28T19:46:24.126Z,29.77
2023-08-28T19:49:52.250Z,29.74
2023-08-28T19:53:18.069Z,29.76
2023-08-28T19:56:43.574Z,29.67
2023-08-28T20:00:08.753Z,29.66
2023-08-28T20:03:32.734Z,29.61
2023-08-28T20:06:57.055Z,29.55
2023-08-28T20:10:23.510Z,29.51
2023-08-28T20:13:48.301Z,29.40
2023-08-28T20:17:11.878Z,29.36
2023-08-28T20:20:35.836Z,29.35
2023-08-28T20:24:01.899Z,29.17
2023-08-28T20:27:28.055Z,29.11
2023-08-28T20:30:52.277Z,29.07
2023-08-28T20:34:16.860Z,29.11
2023-08-28T20:37:41.411Z,28.74
2023-08-28T20:41:04.967Z,28.82
2023-08-28T20:44:30.815Z,28.81
2023-08-28T20:47:54.561Z,28.88
2023-08-28T20:51:21.826Z,28.80
2023-08-28T20:54:44.914Z,28.83
2023-08-28T20:58:09.431Z,28.82
2023-08-28T21:01:33.390Z,28.74
2023-08-28T21:04:56.349Z,28.64
2023-08-28T21:08:18.865Z,28.63
2023-08-28T21:11:41.446Z,28.51
2023-08-28T21:15:04.255Z,28.41
2023-08-28T21:18:28.635Z,28.45
2023-08-28T21:21:50.850Z,28.36
2023-08-28T21:25:13.498Z,28.34
2023-08-28T21:28:36.393Z,28.43
2023-08-28T21:32:00.499Z,28.48
2023-08-28T21:35:24.594Z,28.67
2023-08-28T21:38:47.550Z,28.84
2023-08-28T21:42:09.698Z,28.91
2023-08-28T21:45:32.330Z,27.89
2023-08-28T21:48:54.544Z,27.27
2023-08-28T21:52:36.805Z,26.59
2023-08-28T21:56:17.788Z,26.17
2023-08-28T22:00:00.504Z,25.79
2023-08-28T22:03:41.519Z,25.58
2023-08-28T22:07:22.602Z,25.44
2023-08-28T22:10:48.542Z,25.22
2023-08-28T22:14:12.594Z,25.23
2023-08-28T22:17:35.064Z,24.97
2023-08-28T22:20:57.811Z,24.98
2023-08-28T22:24:20.398Z,24.92
2023-08-28T22:27:44.524Z,24.92
2023-08-28T22:31:07.144Z,24.88
2023-08-28T22:34:29.689Z,24.76
2023-08-28T22:37:52.354Z,24.68
2023-08-28T22:41:15.016Z,24.64
2023-08-28T22:44:38.946Z,24.70
2023-08-28T22:48:01.548Z,24.48
2023-08-28T22:51:25.003Z,24.55
2023-08-28T22:54:47.593Z,24.50
2023-08-28T22:58:10.243Z,24.54
2023-08-28T23:01:34.289Z,24.37
2023-08-28T23:04:56.924Z,24.39
2023-08-28T23:08:19.420Z,24.20
2023-08-28T23:11:42.079Z,24.24
2023-08-28T23:15:04.922Z,24.39
2023-08-28T23:18:29.096Z,24.38
2023-08-28T23:21:51.714Z,24.41
2023-08-28T23:25:14.313Z,24.52
2023-08-28T23:28:36.986Z,24.81
2023-08-28T23:31:59.756Z,24.75
2023-08-28T23:35:23.713Z,24.85
2023-08-28T23:38:46.385Z,24.65
2023-08-28T23:42:09.032Z,24.93
2023-08-28T23:45:31.736Z,24.83
2023-08-28T23:48:54.361Z,24.80
2023-08-28T23:52:18.446Z,24.86
2023-08-28T23:55:41.049Z,25.01
2023-08-28T23:59:03.926Z,25.12
